Time;durP1;ratioP1;P1;durP2;ratioP2;P2;SDS_P1;SDS_P2;PMS_P1;PMS_P2;Temp;Humidity;BMP_temperature;BMP_pressure;BME280_temperature;BME280_humidity;BME280_pressure;Samples;Min_cycle;Max_cycle;Signal;HPM_P1;HPM_P2
2023/10/04 00:00:50;;;;;;;5.47;1.90;;;12.80;99.90;;;;;;5062851;28;20080;-50
2023/10/04 00:03:15;;;;;;;10.70;2.22;;;12.50;99.90;;;;;;5062825;28;20102;-51
2023/10/04 00:05:42;;;;;;;7.35;2.13;;;12.50;99.90;;;;;;5043037;28;20041;-54
2023/10/04 00:08:07;;;;;;;7.50;2.22;;;12.60;99.90;;;;;;5044126;28;20152;-51
2023/10/04 00:10:33;;;;;;;9.05;2.72;;;12.40;99.90;;;;;;5044358;28;20123;-52
2023/10/04 00:12:59;;;;;;;9.65;2.67;;;12.30;99.90;;;;;;5062145;28;20450;-53
2023/10/04 00:15:27;;;;;;;9.50;2.13;;;12.50;99.90;;;;;;5060505;28;20128;-45
2023/10/04 00:17:52;;;;;;;9.70;2.90;;;12.20;99.90;;;;;;5061991;28;20037;-47
2023/10/04 00:20:19;;;;;;;12.70;3.33;;;12.20;99.90;;;;;;5062818;28;20102;-52
2023/10/04 00:22:48;;;;;;;12.90;5.80;;;12.20;99.90;;;;;;5061099;28;20087;-51
2023/10/04 00:25:21;;;;;;;16.15;7.97;;;12.20;99.90;;;;;;5044296;28;20080;-53
2023/10/04 00:27:47;;;;;;;18.77;12.82;;;12.20;99.90;;;;;;5061593;28;20376;-54
2023/10/04 00:30:14;;;;;;;26.08;19.60;;;12.20;99.90;;;;;;5061397;28;20040;-49
2023/10/04 00:32:41;;;;;;;33.78;24.55;;;12.20;99.90;;;;;;5043673;28;20080;-48
2023/10/04 00:35:15;;;;;;;34.17;27.83;;;12.20;99.90;;;;;;5062108;28;20115;-53
2023/10/04 00:37:42;;;;;;;44.15;35.92;;;12.20;99.90;;;;;;5061313;28;20526;-46
2023/10/04 00:40:18;;;;;;;38.15;31.77;;;12.30;99.90;;;;;;5062599;28;20051;-53
2023/10/04 00:42:47;;;;;;;31.10;24.25;;;12.40;99.90;;;;;;5061957;28;20171;-50
2023/10/04 00:45:13;;;;;;;15.90;10.10;;;12.40;99.90;;;;;;5061159;28;20047;-50
2023/10/04 00:47:47;;;;;;;11.23;4.80;;;12.40;99.90;;;;;;5064425;28;20127;-58
2023/10/04 00:50:15;;;;;;;7.90;2.83;;;12.30;99.90;;;;;;5065998;28;20072;-48
2023/10/04 00:52:47;;;;;;;10.75;2.83;;;12.20;99.90;;;;;;5064570;28;20411;-53
2023/10/04 00:55:18;;;;;;;12.20;2.72;;;12.20;99.90;;;;;;5047068;28;20098;-46
2023/10/04 00:57:44;;;;;;;10.75;2.60;;;12.20;99.90;;;;;;5044964;28;20526;-51
2023/10/04 01:00:11;;;;;;;9.13;2.38;;;12.10;99.90;;;;;;5064421;28;20040;-51
2023/10/04 01:02:37;;;;;;;9.75;2.40;;;12.10;99.90;;;;;;5064740;28;20044;-49
2023/10/04 01:05:04;;;;;;;11.60;2.60;;;12.10;99.90;;;;;;5065743;28;20080;-51
2023/10/04 01:07:31;;;;;;;12.30;3.20;;;12.10;99.90;;;;;;5063649;28;20056;-48
2023/10/04 01:09:58;;;;;;;10.48;2.78;;;12.10;99.90;;;;;;5065444;28;20054;-53
2023/10/04 01:12:24;;;;;;;8.52;2.40;;;12.20;99.90;;;;;;5064922;28;20058;-51
2023/10/04 01:14:53;;;;;;;13.35;3.47;;;12.10;99.90;;;;;;5064127;28;20116;-51
2023/10/04 01:17:19;;;;;;;14.00;3.95;;;12.00;99.90;;;;;;5047262;28;20131;-52
2023/10/04 01:19:45;;;;;;;14.38;3.38;;;12.20;99.90;;;;;;5046681;28;20072;-54
2023/10/04 01:22:11;;;;;;;15.95;4.20;;;12.10;99.90;;;;;;5064658;28;20544;-51
2023/10/04 01:24:41;;;;;;;11.77;3.20;;;12.20;99.90;;;;;;5063991;28;20097;-49
2023/10/04 01:27:08;;;;;;;13.40;3.03;;;12.40;99.90;;;;;;5065165;28;20040;-47
2023/10/04 01:29:33;;;;;;;13.85;2.72;;;12.30;99.90;;;;;;5046096;28;20044;-53
2023/10/04 01:31:59;;;;;;;11.43;2.25;;;12.40;99.90;;;;;;5064665;28;20631;-51
2023/10/04 01:34:25;;;;;;;10.23;2.65;;;12.40;99.90;;;;;;5063167;28;20411;-48
2023/10/04 01:36:50;;;;;;;10.88;2.75;;;12.40;99.90;;;;;;5046730;28;20040;-51
2023/10/04 01:39:19;;;;;;;11.23;2.88;;;12.30;99.90;;;;;;5047209;28;20859;-53
2023/10/04 01:41:46;;;;;;;11.75;2.85;;;12.40;99.90;;;;;;5064197;28;20041;-49
2023/10/04 01:44:12;;;;;;;12.50;2.85;;;12.40;99.90;;;;;;5064287;28;20068;-53
2023/10/04 01:46:38;;;;;;;15.80;2.97;;;12.40;99.90;;;;;;5063855;28;20088;-54
2023/10/04 01:49:07;;;;;;;13.50;2.97;;;12.30;99.90;;;;;;5063325;28;20037;-53
2023/10/04 01:51:33;;;;;;;10.88;2.65;;;12.70;99.90;;;;;;5063200;28;20041;-52
2023/10/04 01:53:59;;;;;;;13.00;2.65;;;12.30;99.90;;;;;;5064384;28;20048;-50
2023/10/04 01:56:25;;;;;;;13.57;2.65;;;12.40;99.90;;;;;;5063607;28;20044;-52
2023/10/04 01:58:51;;;;;;;11.65;3.00;;;12.40;99.90;;;;;;5061791;28;20040;-51
2023/10/04 02:01:17;;;;;;;13.52;2.75;;;12.40;99.90;;;;;;5064635;28;20040;-50
2023/10/04 02:03:43;;;;;;;13.77;2.63;;;12.60;99.90;;;;;;5064227;28;20508;-51
2023/10/04 02:06:10;;;;;;;9.00;2.20;;;12.60;99.90;;;;;;5062934;28;20105;-51
2023/10/04 02:08:35;;;;;;;14.45;3.00;;;12.30;99.90;;;;;;5062678;28;20132;-52
2023/10/04 02:11:04;;;;;;;12.57;2.90;;;12.50;99.90;;;;;;5045202;28;20431;-48
2023/10/04 02:13:32;;;;;;;10.68;2.50;;;12.40;99.90;;;;;;5062306;28;20048;-55
2023/10/04 02:15:59;;;;;;;14.45;2.80;;;12.30;99.90;;;;;;5044912;28;20087;-52
2023/10/04 02:18:25;;;;;;;13.57;2.80;;;12.30;99.90;;;;;;5044793;28;20407;-52
2023/10/04 02:20:53;;;;;;;14.02;2.80;;;12.30;99.90;;;;;;5063578;28;20079;-49
2023/10/04 02:23:19;;;;;;;11.25;2.55;;;12.30;99.90;;;;;;5062861;28;20038;-46
2023/10/04 02:25:48;;;;;;;10.70;2.72;;;12.20;99.90;;;;;;5063619;28;20443;-52
2023/10/04 02:28:24;;;;;;;9.15;2.28;;;12.30;99.90;;;;;;5044682;28;20124;-52
2023/10/04 02:30:54;;;;;;;12.52;2.40;;;12.30;99.90;;;;;;5062681;28;20053;-49
2023/10/04 02:33:19;;;;;;;10.70;2.38;;;12.30;99.90;;;;;;5064240;28;20111;-51
2023/10/04 02:35:45;;;;;;;15.65;2.85;;;12.20;99.90;;;;;;5061722;28;20451;-53
2023/10/04 02:38:23;;;;;;;11.88;2.90;;;12.40;99.90;;;;;;5058526;28;20107;-50
2023/10/04 02:40:53;;;;;;;10.70;2.20;;;12.30;99.90;;;;;;5047931;28;20051;-52
2023/10/04 02:43:23;;;;;;;1174.30;885.57;;;12.30;99.90;;;;;;5043037;28;20045;-49
2023/10/04 02:45:50;;;;;;;1062.90;947.60;;;12.40;99.90;;;;;;5043468;28;20102;-52
2023/10/04 02:48:16;;;;;;;10.13;2.45;;;12.40;99.90;;;;;;5025800;28;20051;-49
2023/10/04 02:50:45;;;;;;;11.93;2.72;;;12.50;99.90;;;;;;5043456;28;20049;-52
2023/10/04 02:53:16;;;;;;;15.82;2.90;;;12.50;99.90;;;;;;5042245;28;20033;-52
2023/10/04 02:55:42;;;;;;;37.90;22.38;;;12.50;99.90;;;;;;5054047;28;20032;-52
2023/10/04 02:58:10;;;;;;;13.55;3.47;;;12.50;99.90;;;;;;5062450;28;20044;-54
2023/10/04 03:00:44;;;;;;;530.70;482.00;;;12.60;99.90;;;;;;5062011;28;20480;-51
2023/10/04 03:03:12;;;;;;;14.07;3.45;;;12.40;99.90;;;;;;5063172;28;20071;-46
2023/10/04 03:05:40;;;;;;;13.25;3.20;;;12.40;99.90;;;;;;5044395;28;20052;-52
2023/10/04 03:08:06;;;;;;;24.15;6.80;;;12.40;99.90;;;;;;5062388;28;20063;-51
2023/10/04 03:10:33;;;;;;;;;;;12.50;99.90;;;;;;5062159;28;20079;-52
2023/10/04 03:13:01;;;;;;;1414.70;999.90;;;12.30;99.90;;;;;;5060493;28;20519;-54
2023/10/04 03:15:28;;;;;;;117.72;87.90;;;12.50;99.90;;;;;;5061655;28;20342;-53
2023/10/04 03:17:55;;;;;;;14.20;3.03;;;12.50;99.90;;;;;;5044580;28;20127;-48
2023/10/04 03:20:23;;;;;;;15.98;3.38;;;12.50;99.90;;;;;;5062849;28;20045;-50
2023/10/04 03:22:55;;;;;;;;;;;12.50;99.90;;;;;;5062896;28;20083;-49
2023/10/04 03:25:23;;;;;;;;;;;12.50;99.90;;;;;;5058461;28;25086;-51
2023/10/04 03:27:49;;;;;;;;;;;12.70;99.90;;;;;;5059425;28;25162;-52
2023/10/04 03:30:15;;;;;;;;;;;12.70;99.90;;;;;;5059843;28;25089;-54
2023/10/04 03:32:49;;;;;;;19.42;7.25;;;12.70;99.90;;;;;;5061716;28;20272;-47
2023/10/04 03:35:14;;;;;;;15.10;3.45;;;12.60;99.90;;;;;;5062604;28;20055;-54
2023/10/04 03:37:48;;;;;;;;;;;12.50;99.90;;;;;;5061315;28;20753;-52
2023/10/04 03:40:15;;;;;;;19.50;10.13;;;12.60;99.90;;;;;;5062782;28;19920;-51
2023/10/04 03:42:41;;;;;;;;;;;12.50;99.90;;;;;;5060351;28;20567;-46
2023/10/04 03:45:07;;;;;;;;;;;12.90;99.90;;;;;;5061477;28;25066;-52
2023/10/04 03:47:33;;;;;;;;;;;12.60;99.90;;;;;;5058827;28;21076;-52
2023/10/04 03:49:58;;;;;;;;;;;12.70;99.90;;;;;;5043458;28;20147;-47
2023/10/04 03:52:25;;;;;;;;;;;12.70;99.90;;;;;;5057181;28;25122;-49
2023/10/04 03:54:51;;;;;;;;;;;12.70;99.90;;;;;;5060935;28;25063;-51
2023/10/04 03:57:16;;;;;;;;;;;12.70;99.90;;;;;;5042405;28;24078;-49
2023/10/04 03:59:44;;;;;;;;;;;12.70;99.90;;;;;;5056059;28;24700;-53
2023/10/04 04:02:11;;;;;;;;;;;13.00;99.90;;;;;;5041189;28;21021;-54
2023/10/04 04:04:36;;;;;;;;;;;12.80;99.90;;;;;;5059929;28;20145;-54
2023/10/04 04:07:02;;;;;;;;;;;12.70;99.90;;;;;;5061518;28;19981;-46
2023/10/04 04:09:28;;;;;;;;;;;12.70;99.90;;;;;;5061775;28;19931;-54
2023/10/04 04:11:54;;;;;;;;;;;13.40;99.90;;;;;;5058770;28;25161;-50
2023/10/04 04:14:19;;;;;;;;;;;12.70;99.90;;;;;;5058266;28;20543;-51
2023/10/04 04:16:46;;;;;;;;;;;12.80;99.90;;;;;;5062353;28;19925;-53
2023/10/04 04:19:14;;;;;;;49.45;17.08;;;12.90;99.90;;;;;;5062510;28;20444;-55
2023/10/04 04:21:40;;;;;;;15.38;2.92;;;12.60;99.90;;;;;;5062600;28;20193;-54
2023/10/04 04:24:06;;;;;;;1342.30;990.00;;;12.70;99.90;;;;;;5065607;28;20547;-50
2023/10/04 04:26:33;;;;;;;11.57;2.72;;;12.60;99.90;;;;;;5066007;28;20064;-54
2023/10/04 04:28:59;;;;;;;;;;;12.70;99.90;;;;;;5063797;28;20040;-52
2023/10/04 04:31:25;;;;;;;;;;;12.60;99.90;;;;;;5065235;28;20057;-52
2023/10/04 04:33:53;;;;;;;;;;;13.70;99.90;;;;;;5062401;28;25124;-49
2023/10/04 04:36:25;;;;;;;;;;;12.60;99.90;;;;;;5065747;28;19928;-55
2023/10/04 04:38:51;;;;;;;;;;;12.70;99.90;;;;;;5064951;28;19927;-51
2023/10/04 04:41:21;;;;;;;;;;;12.60;99.90;;;;;;5065624;28;25117;-53
2023/10/04 04:43:49;;;;;;;;;;;12.50;99.90;;;;;;5064516;28;20155;-52
2023/10/04 04:46:16;;;;;;;;;;;12.50;99.90;;;;;;5063034;28;20888;-51
2023/10/04 04:48:42;;;;;;;;;;;12.60;99.90;;;;;;5046014;28;20714;-50
2023/10/04 04:51:11;;;;;;;;;;;12.60;99.90;;;;;;5063063;28;20667;-50
2023/10/04 04:53:41;;;;;;;;;;;12.60;99.90;;;;;;5063311;28;20006;-54
2023/10/04 04:56:18;;;;;;;1449.00;999.90;;;12.50;99.90;;;;;;5043499;28;25096;-51
2023/10/04 04:58:56;;;;;;;;;;;12.50;99.90;;;;;;5055045;28;20384;-50
2023/10/04 05:01:21;;;;;;;;;;;12.40;99.90;;;;;;5061999;28;25168;-53
2023/10/04 05:03:50;;;;;;;1337.80;972.10;;;12.40;99.90;;;;;;5065238;28;19950;-53
2023/10/04 05:06:22;;;;;;;;;;;12.50;99.90;;;;;;5064734;28;20071;-49
2023/10/04 05:08:49;;;;;;;1388.15;917.85;;;12.40;99.90;;;;;;5064461;28;20164;-49
2023/10/04 05:11:15;;;;;;;;;;;12.30;99.90;;;;;;5064458;28;19920;-53
2023/10/04 05:13:40;;;;;;;;;;;12.30;99.90;;;;;;5063338;28;20081;-54
2023/10/04 05:16:06;;;;;;;;;;;12.30;99.90;;;;;;5063162;28;25100;-50
2023/10/04 05:18:32;;;;;;;;;;;12.30;99.90;;;;;;5063783;28;19920;-50
2023/10/04 05:21:00;;;;;;;;;;;12.30;99.90;;;;;;5063936;28;20367;-54
2023/10/04 05:23:26;;;;;;;;;;;12.60;99.90;;;;;;5060345;28;25080;-52
2023/10/04 05:25:53;;;;;;;;;;;12.60;99.90;;;;;;5063795;28;20088;-49
2023/10/04 05:28:19;;;;;;;;;;;12.20;99.90;;;;;;5063790;28;19958;-52
2023/10/04 05:30:45;;;;;;;;;;;12.30;99.90;;;;;;5062282;28;20934;-51
2023/10/04 05:33:13;;;;;;;;;;;12.40;99.90;;;;;;5062057;28;20061;-53
2023/10/04 05:35:42;;;;;;;;;;;13.00;99.90;;;;;;5061271;28;25083;-50
2023/10/04 05:38:08;;;;;;;;;;;12.40;99.90;;;;;;5063632;28;20061;-51
2023/10/04 05:40:38;;;;;;;;;;;12.30;99.90;;;;;;5058574;28;25073;-50
2023/10/04 05:43:04;;;;;;;;;;;12.30;99.90;;;;;;5062631;28;20307;-54
2023/10/04 05:45:29;;;;;;;;;;;12.20;99.90;;;;;;5060469;28;25063;-52
2023/10/04 05:47:56;;;;;;;998.63;667.92;;;12.30;99.90;;;;;;5063388;28;20047;-49
2023/10/04 05:50:22;;;;;;;19.80;3.40;;;12.20;99.90;;;;;;5063959;28;20079;-52
2023/10/04 05:52:52;;;;;;;13.48;2.55;;;12.20;99.90;;;;;;5064100;28;20041;-53
2023/10/04 05:55:19;;;;;;;9.23;2.63;;;12.20;99.90;;;;;;5064004;28;20045;-53
2023/10/04 05:57:58;;;;;;;11.50;2.95;;;12.20;99.90;;;;;;5062367;28;20206;-50
2023/10/04 06:02:51;;;;;;;14.10;3.03;;;12.20;99.90;;;;;;5056850;28;20044;-48
2023/10/04 06:05:16;;;;;;;15.25;3.97;;;12.10;99.90;;;;;;5046155;28;20046;-50
2023/10/04 06:07:43;;;;;;;10.32;2.63;;;12.20;99.90;;;;;;5045976;28;20465;-52
2023/10/04 06:10:11;;;;;;;10.70;3.00;;;12.10;99.90;;;;;;5064258;28;20390;-53
2023/10/04 06:12:38;;;;;;;11.38;2.95;;;12.20;99.90;;;;;;5062209;28;20049;-53
2023/10/04 06:15:05;;;;;;;11.23;2.83;;;12.10;99.90;;;;;;5063689;28;20036;-49
2023/10/04 06:17:31;;;;;;;12.60;3.17;;;12.20;99.90;;;;;;5063184;28;20040;-49
2023/10/04 06:19:57;;;;;;;13.68;3.42;;;12.20;99.90;;;;;;5062802;28;20048;-53
2023/10/04 06:22:23;;;;;;;10.75;3.53;;;12.20;99.90;;;;;;5063433;28;20367;-53
2023/10/04 06:24:49;;;;;;;11.38;3.40;;;12.40;99.90;;;;;;5046089;28;20100;-48
2023/10/04 06:27:15;;;;;;;13.90;2.88;;;12.20;99.90;;;;;;5062398;28;20066;-54
2023/10/04 06:29:41;;;;;;;11.45;2.83;;;12.20;99.90;;;;;;5061740;28;20418;-54
2023/10/04 06:32:07;;;;;;;12.00;3.38;;;12.20;99.90;;;;;;5062720;28;20048;-51
2023/10/04 06:34:32;;;;;;;11.70;2.90;;;12.20;99.90;;;;;;5061656;28;20036;-50
2023/10/04 06:36:58;;;;;;;13.90;3.00;;;12.30;99.90;;;;;;5044815;28;20048;-54
2023/10/04 06:39:23;;;;;;;16.35;3.58;;;12.40;99.90;;;;;;5062631;28;20451;-49
2023/10/04 06:41:49;;;;;;;14.05;3.08;;;12.40;99.90;;;;;;5063238;28;20044;-54
2023/10/04 06:44:15;;;;;;;12.10;3.42;;;12.40;99.90;;;;;;5045271;28;20656;-54
2023/10/04 06:46:40;;;;;;;12.20;2.95;;;12.50;99.90;;;;;;5062395;28;20064;-52
2023/10/04 06:49:06;;;;;;;9.13;2.95;;;12.50;99.90;;;;;;5063218;28;20047;-53
2023/10/04 06:51:31;;;;;;;11.07;3.42;;;12.50;99.90;;;;;;5062710;28;20048;-48
2023/10/04 06:53:58;;;;;;;12.80;3.13;;;12.50;99.90;;;;;;5062667;28;20874;-47
2023/10/04 06:56:24;;;;;;;13.35;3.88;;;12.60;99.90;;;;;;5062340;28;20557;-49
2023/10/04 06:58:50;;;;;;;11.90;3.08;;;12.60;99.90;;;;;;5062200;28;20139;-48
2023/10/04 07:01:16;;;;;;;9.50;3.67;;;12.70;99.90;;;;;;5062399;28;20128;-54
2023/10/04 07:03:43;;;;;;;14.30;3.55;;;12.80;99.90;;;;;;5062112;28;20074;-53
2023/10/04 07:06:09;;;;;;;11.13;3.35;;;12.80;99.90;;;;;;5062998;28;20044;-52
2023/10/04 07:08:35;;;;;;;15.73;3.80;;;12.90;99.90;;;;;;5062067;28;20051;-48
2023/10/04 07:11:03;;;;;;;28.67;10.60;;;12.90;99.90;;;;;;5062571;28;20135;-53
2023/10/04 07:13:32;;;;;;;16.10;3.55;;;13.00;99.90;;;;;;5062006;28;20045;-48
2023/10/04 07:15:58;;;;;;;14.50;3.58;;;13.10;99.90;;;;;;5062842;28;20052;-52
2023/10/04 07:18:24;;;;;;;13.50;3.58;;;13.20;99.90;;;;;;5062397;28;20044;-54
2023/10/04 07:20:50;;;;;;;11.88;3.70;;;13.20;99.90;;;;;;5043279;28;20546;-52
2023/10/04 07:23:16;;;;;;;15.35;3.70;;;13.30;99.90;;;;;;5063010;28;20048;-52
2023/10/04 07:25:44;;;;;;;13.60;3.63;;;13.30;99.90;;;;;;5062391;28;20437;-55
2023/10/04 07:28:11;;;;;;;11.07;3.50;;;13.40;99.90;;;;;;5061394;28;20041;-55
2023/10/04 07:30:38;;;;;;;21.13;3.95;;;13.50;99.90;;;;;;5044634;28;20040;-51
2023/10/04 07:33:04;;;;;;;11.50;3.60;;;13.50;99.90;;;;;;5062663;28;20048;-50
2023/10/04 07:35:32;;;;;;;12.23;3.85;;;13.60;99.90;;;;;;5062788;28;20059;-50
2023/10/04 07:37:58;;;;;;;12.77;4.10;;;13.70;99.90;;;;;;5062486;28;20067;-53
2023/10/04 07:40:25;;;;;;;13.80;4.10;;;13.70;99.90;;;;;;5062783;28;20044;-55
2023/10/04 07:42:53;;;;;;;15.38;4.03;;;14.00;99.90;;;;;;5061429;28;20033;-52
2023/10/04 07:45:24;;;;;;;19.95;3.88;;;13.90;99.90;;;;;;5062937;28;20040;-53
2023/10/04 07:47:50;;;;;;;12.40;3.83;;;14.00;99.90;;;;;;5063354;28;20060;-49
2023/10/04 07:50:22;;;;;;;12.70;3.78;;;14.00;99.90;;;;;;5062481;28;20410;-54
2023/10/04 07:52:50;;;;;;;12.98;3.78;;;14.10;99.90;;;;;;5061200;28;20123;-52
2023/10/04 07:55:18;;;;;;;11.23;3.47;;;14.10;99.90;;;;;;5061338;28;20043;-54
2023/10/04 07:57:44;;;;;;;14.77;3.78;;;14.20;99.90;;;;;;5060380;28;20487;-53
2023/10/04 08:00:13;;;;;;;16.95;4.18;;;14.20;99.90;;;;;;5044047;28;20048;-52
2023/10/04 08:02:45;;;;;;;12.88;4.10;;;14.40;99.90;;;;;;5062422;28;20111;-50
2023/10/04 08:05:13;;;;;;;10.80;3.50;;;14.40;99.90;;;;;;5061816;28;20131;-49
2023/10/04 08:07:38;;;;;;;15.35;4.15;;;14.40;99.90;;;;;;5061076;28;20403;-55
2023/10/04 08:10:05;;;;;;;15.93;4.22;;;14.50;99.90;;;;;;5061056;28;20037;-54
2023/10/04 08:12:30;;;;;;;14.48;3.90;;;14.50;99.90;;;;;;5060193;28;20418;-50
2023/10/04 08:15:00;;;;;;;13.98;5.00;;;14.70;99.90;;;;;;5061821;28;20036;-50
2023/10/04 08:17:26;;;;;;;13.82;3.50;;;14.70;99.90;;;;;;5043071;28;20254;-52
2023/10/04 08:19:52;;;;;;;14.38;4.15;;;14.80;99.90;;;;;;5061242;28;20116;-50
2023/10/04 08:22:17;;;;;;;13.98;4.25;;;14.90;99.90;;;;;;5061690;28;20041;-49
2023/10/04 08:24:46;;;;;;;18.52;4.40;;;14.90;99.90;;;;;;5060244;28;20040;-53
2023/10/04 08:27:12;;;;;;;13.25;4.20;;;15.10;99.90;;;;;;5061239;28;20052;-55
2023/10/04 08:29:37;;;;;;;17.05;4.05;;;15.00;99.90;;;;;;5060858;28;20033;-53
2023/10/04 08:32:03;;;;;;;16.23;5.00;;;15.10;99.90;;;;;;5061185;28;20040;-52
2023/10/04 08:34:29;;;;;;;12.77;4.45;;;15.20;99.90;;;;;;5060963;28;20049;-53
2023/10/04 08:36:56;;;;;;;14.10;4.05;;;15.30;99.90;;;;;;5061978;28;20045;-49
2023/10/04 08:39:22;;;;;;;11.77;3.78;;;15.30;99.90;;;;;;5061605;28;20041;-53
2023/10/04 08:41:48;;;;;;;16.67;4.53;;;15.40;99.90;;;;;;5060635;28;20686;-49
2023/10/04 08:44:14;;;;;;;13.23;4.75;;;15.40;99.90;;;;;;5061886;28;20437;-52
2023/10/04 08:46:43;;;;;;;14.30;4.57;;;15.50;99.90;;;;;;5043399;28;20557;-54
2023/10/04 08:49:10;;;;;;;18.75;4.50;;;15.50;99.90;;;;;;5060919;28;20044;-48
2023/10/04 08:52:03;;;;;;;17.73;4.60;;;15.60;99.90;;;;;;5061082;28;20068;-48
2023/10/04 08:54:29;;;;;;;18.02;4.72;;;15.60;99.90;;;;;;5059940;28;20128;-52
2023/10/04 08:57:08;;;;;;;17.85;5.00;;;15.70;99.90;;;;;;5060310;28;20123;-51
2023/10/04 08:59:34;;;;;;;15.35;4.32;;;15.80;99.90;;;;;;5061506;28;20068;-55
2023/10/04 09:02:01;;;;;;;13.63;3.92;;;16.30;99.90;;;;;;5061069;28;20398;-53
2023/10/04 09:04:27;;;;;;;15.45;4.10;;;16.60;99.90;;;;;;5061263;28;20462;-51
2023/10/04 09:06:53;;;;;;;12.90;4.13;;;17.00;99.90;;;;;;5061711;28;20041;-54
2023/10/04 09:09:19;;;;;;;11.25;3.72;;;16.90;99.90;;;;;;5064576;28;20061;-46
2023/10/04 09:11:45;;;;;;;14.48;3.90;;;16.80;99.90;;;;;;5063297;28;20418;-49
2023/10/04 09:14:15;;;;;;;16.42;4.45;;;16.90;99.90;;;;;;5047516;28;20048;-50
2023/10/04 09:16:40;;;;;;;13.80;4.07;;;17.10;99.90;;;;;;5030287;28;20056;-51
2023/10/04 09:19:09;;;;;;;16.15;4.13;;;17.20;99.90;;;;;;5063627;28;20044;-54
2023/10/04 09:21:36;;;;;;;10.43;3.78;;;17.40;99.90;;;;;;5064826;28;20135;-54
2023/10/04 09:24:08;;;;;;;13.05;4.35;;;17.50;99.90;;;;;;5064943;28;20080;-50
2023/10/04 09:26:34;;;;;;;13.73;3.92;;;17.70;99.90;;;;;;5063241;28;20076;-53
2023/10/04 09:28:59;;;;;;;13.25;3.78;;;17.80;99.90;;;;;;5065246;28;20072;-48
2023/10/04 09:31:26;;;;;;;14.20;4.30;;;17.70;99.90;;;;;;5046496;28;20048;-53
2023/10/04 09:33:52;;;;;;;12.48;3.83;;;17.50;99.90;;;;;;5064999;28;20483;-48
2023/10/04 09:36:33;;;;;;;13.82;3.97;;;17.60;99.90;;;;;;5064750;28;20119;-52
2023/10/04 09:39:09;;;;;;;13.43;3.85;;;17.70;99.90;;;;;;5064800;28;20066;-48
2023/10/04 09:41:41;;;;;;;11.85;3.70;;;18.10;99.90;;;;;;5062924;28;20592;-53
2023/10/04 09:44:27;;;;;;;13.38;4.07;;;18.30;99.90;;;;;;5064673;28;20092;-52
2023/10/04 09:46:56;;;;;;;13.60;3.95;;;18.30;99.90;;;;;;5064466;28;20407;-53
2023/10/04 09:49:26;;;;;;;14.68;4.40;;;18.20;99.90;;;;;;5064777;28;20036;-54
2023/10/04 09:51:55;;;;;;;12.50;4.32;;;18.40;99.90;;;;;;5046202;28;20412;-48
2023/10/04 09:54:22;;;;;;;12.32;3.83;;;18.40;99.90;;;;;;5063842;28;20128;-55
2023/10/04 09:56:51;;;;;;;12.73;3.75;;;18.30;99.90;;;;;;5063291;28;20905;-55
2023/10/04 09:59:21;;;;;;;11.32;3.95;;;18.30;99.90;;;;;;5064486;28;20072;-54
2023/10/04 10:01:55;;;;;;;9.52;3.90;;;18.40;99.90;;;;;;5061096;28;20051;-54
2023/10/04 10:04:27;;;;;;;8.15;3.50;;;18.50;99.90;;;;;;5045221;28;20106;-55
2023/10/04 10:07:15;;;;;;;11.05;3.63;;;18.60;99.90;;;;;;5063505;28;20495;-56
2023/10/04 10:09:51;;;;;;;8.00;3.42;;;18.60;99.90;;;;;;5063851;28;20051;-55
2023/10/04 10:12:18;;;;;;;14.18;4.32;;;18.50;99.90;;;;;;5063268;28;20048;-56
2023/10/04 10:14:47;;;;;;;10.57;3.83;;;18.40;99.90;;;;;;5046040;28;20186;-57
2023/10/04 10:17:13;;;;;;;14.15;3.75;;;18.40;99.90;;;;;;5063043;28;20127;-55
2023/10/04 10:19:39;;;;;;;10.70;3.40;;;18.50;99.90;;;;;;5062737;28;20542;-51
2023/10/04 10:22:15;;;;;;;10.20;3.72;;;18.50;99.90;;;;;;5063022;28;20044;-55
2023/10/04 10:25:14;;;;;;;13.85;3.75;;;18.50;99.90;;;;;;5063664;28;20062;-50
2023/10/04 10:27:41;;;;;;;11.95;4.53;;;18.60;99.90;;;;;;5063023;28;20077;-53
2023/10/04 10:30:12;;;;;;;13.50;3.78;;;18.70;99.90;;;;;;5063686;28;20410;-51
2023/10/04 10:32:54;;;;;;;12.98;4.00;;;18.90;99.90;;;;;;5062022;28;20083;-48
2023/10/04 10:35:48;;;;;;;10.70;3.88;;;18.90;99.90;;;;;;5062703;28;20502;-54
2023/10/04 10:38:50;;;;;;;13.45;4.38;;;19.10;99.90;;;;;;5044341;28;20048;-53
2023/10/04 10:41:28;;;;;;;14.40;4.72;;;19.10;99.90;;;;;;5047635;28;20052;-56
2023/10/04 10:44:23;;;;;;;10.98;4.18;;;19.00;99.90;;;;;;5063784;28;20052;-53
2023/10/04 10:46:53;;;;;;;10.65;3.60;;;18.90;99.90;;;;;;5063261;28;20502;-52
2023/10/04 10:49:40;;;;;;;12.98;4.18;;;18.80;99.90;;;;;;5063753;28;20470;-49
2023/10/04 10:52:31;;;;;;;12.52;4.53;;;18.50;99.90;;;;;;5061972;28;20890;-52
2023/10/04 10:54:58;;;;;;;14.57;3.92;;;18.40;99.90;;;;;;5053064;28;20053;-55
2023/10/04 10:57:28;;;;;;;10.98;4.13;;;18.20;99.90;;;;;;5061033;28;20080;-52
2023/10/04 11:00:02;;;;;;;10.82;4.18;;;18.20;99.90;;;;;;5063241;28;20471;-52
2023/10/04 11:02:28;;;;;;;9.63;4.18;;;18.10;99.90;;;;;;5061922;28;20044;-52
2023/10/04 11:04:54;;;;;;;11.15;4.07;;;17.90;99.90;;;;;;5061422;28;20055;-54
2023/10/04 11:07:23;;;;;;;11.05;4.10;;;17.90;99.90;;;;;;5063398;28;20494;-50
2023/10/04 11:09:50;;;;;;;11.50;3.97;;;17.80;99.90;;;;;;5063280;28;20390;-51
2023/10/04 11:12:21;;;;;;;12.75;3.88;;;17.60;99.90;;;;;;5060632;28;20048;-54
2023/10/04 11:14:47;;;;;;;14.73;5.05;;;17.50;99.90;;;;;;5044505;28;20182;-53
2023/10/04 11:17:16;;;;;;;11.10;4.15;;;17.50;99.90;;;;;;5044047;28;20110;-54
2023/10/04 11:19:44;;;;;;;14.93;4.20;;;17.30;99.90;;;;;;5061832;28;20047;-55
2023/10/04 11:22:11;;;;;;;11.63;4.40;;;17.20;99.90;;;;;;5044914;28;20048;-55
2023/10/04 11:24:39;;;;;;;12.65;4.63;;;17.20;99.90;;;;;;5062252;28;20045;-57
2023/10/04 11:27:05;;;;;;;12.05;4.15;;;17.20;99.90;;;;;;5043443;28;20048;-55
2023/10/04 11:29:33;;;;;;;10.40;3.70;;;17.10;99.90;;;;;;5061974;28;20052;-54
2023/10/04 11:31:59;;;;;;;16.98;5.15;;;17.20;99.90;;;;;;5061788;28;20050;-52
2023/10/04 11:34:28;;;;;;;11.60;3.97;;;17.10;99.90;;;;;;5062322;28;20120;-57
2023/10/04 11:37:01;;;;;;;11.38;4.20;;;17.00;99.90;;;;;;5061779;28;20068;-56
2023/10/04 11:39:34;;;;;;;13.35;4.57;;;17.00;99.90;;;;;;5062313;28;20085;-55
2023/10/04 11:42:04;;;;;;;13.98;4.57;;;16.90;99.90;;;;;;5061641;28;20044;-56
2023/10/04 11:44:32;;;;;;;11.07;4.63;;;16.90;99.90;;;;;;5044432;28;20059;-58
2023/10/04 11:47:00;;;;;;;10.48;3.80;;;16.90;99.90;;;;;;5061789;28;20609;-56
2023/10/04 11:49:30;;;;;;;14.60;4.70;;;16.90;99.90;;;;;;5062006;28;20044;-54
2023/10/04 11:52:00;;;;;;;13.27;4.47;;;17.00;99.90;;;;;;5062005;28;20036;-58
2023/10/04 11:54:44;;;;;;;10.68;3.88;;;17.00;99.90;;;;;;5061805;28;20068;-55
2023/10/04 11:57:11;;;;;;;15.63;4.28;;;17.10;99.90;;;;;;5060977;28;20051;-56
2023/10/04 11:59:37;;;;;;;13.60;4.30;;;17.10;99.90;;;;;;5061956;28;20051;-56
2023/10/04 12:02:04;;;;;;;12.75;4.65;;;17.00;99.90;;;;;;5062268;28;20045;-58
2023/10/04 12:04:31;;;;;;;12.32;4.53;;;16.90;99.90;;;;;;5061181;28;20186;-57
2023/10/04 12:07:02;;;;;;;12.13;4.65;;;16.90;99.90;;;;;;5061931;28;20039;-55
2023/10/04 12:09:30;;;;;;;10.48;4.32;;;16.90;99.90;;;;;;5062053;28;20052;-56
2023/10/04 12:11:57;;;;;;;12.32;4.70;;;17.00;99.90;;;;;;5042703;28;20048;-55
2023/10/04 12:14:23;;;;;;;12.73;4.22;;;17.00;99.90;;;;;;5061739;28;20120;-57
2023/10/04 12:16:49;;;;;;;12.90;4.47;;;17.00;99.90;;;;;;5062268;28;20513;-58
2023/10/04 12:19:15;;;;;;;15.40;5.53;;;17.00;99.90;;;;;;5062650;28;20490;-55
2023/10/04 12:21:41;;;;;;;16.17;4.53;;;17.00;99.90;;;;;;5061431;28;20400;-58
2023/10/04 12:24:09;;;;;;;14.60;4.97;;;17.00;99.90;;;;;;5062204;28;20052;-54
2023/10/04 12:26:35;;;;;;;11.07;4.38;;;17.10;99.90;;;;;;5060818;28;20056;-53
2023/10/04 12:29:05;;;;;;;13.43;4.03;;;17.20;99.90;;;;;;5061108;28;20543;-57
2023/10/04 12:31:31;;;;;;;13.18;4.07;;;17.20;99.90;;;;;;5044683;28;20041;-55
2023/10/04 12:33:56;;;;;;;10.95;4.00;;;17.30;99.90;;;;;;5062159;28;20048;-53
2023/10/04 12:36:25;;;;;;;13.07;4.80;;;17.20;99.90;;;;;;5060883;28;20390;-57
2023/10/04 12:38:51;;;;;;;12.57;3.35;;;17.20;99.90;;;;;;5061701;28;20056;-56
2023/10/04 12:41:18;;;;;;;12.75;4.40;;;17.20;99.90;;;;;;5042963;28;20102;-57
2023/10/04 12:43:44;;;;;;;9.10;4.03;;;17.20;99.90;;;;;;5063697;28;20040;-56
2023/10/04 12:46:10;;;;;;;10.65;3.88;;;17.20;99.90;;;;;;5064662;28;20560;-59
2023/10/04 12:48:36;;;;;;;9.85;3.75;;;17.20;99.90;;;;;;5065502;28;20089;-57
2023/10/04 12:51:02;;;;;;;10.80;4.30;;;17.10;99.90;;;;;;5065333;28;20045;-58
2023/10/04 12:53:28;;;;;;;9.15;3.25;;;17.20;99.90;;;;;;5045836;28;20045;-58
2023/10/04 12:55:54;;;;;;;11.43;3.90;;;17.10;99.90;;;;;;5063983;28;20147;-58
2023/10/04 12:58:20;;;;;;;12.07;3.58;;;17.20;99.90;;;;;;5064570;28;20040;-46